Time;durP1;ratioP1;P1;durP2;ratioP2;P2;SDS_P1;SDS_P2;PMS_P1;PMS_P2;Temp;Humidity;BMP_temperature;BMP_pressure;BME280_temperature;BME280_humidity;BME280_pressure;Samples;Min_cycle;Max_cycle;Signal;HPM_P1;HPM_P2
2024/01/13 00:01:30;;;;;;;41.90;17.88;;;;;;;;;;6248898;22;20019;-78
2024/01/13 00:03:57;;;;;;;38.45;16.52;;;;;;;;;;6254846;22;20020;-79
2024/01/13 00:06:24;;;;;;;39.67;17.98;;;;;;;;;;6254498;22;20051;-77
2024/01/13 00:08:51;;;;;;;34.55;16.38;;;;;;;;;;6254951;22;20012;-78
2024/01/13 00:11:17;;;;;;;43.60;16.67;;;;;;;;;;6254709;22;20017;-77
2024/01/13 00:13:44;;;;;;;36.72;16.27;;;;;;;;;;6255509;22;20026;-77
2024/01/13 00:16:11;;;;;;;38.72;16.70;;;;;;;;;;6250455;22;20020;-77
2024/01/13 00:18:37;;;;;;;33.78;15.77;;;;;;;;;;6244246;22;20012;-78
2024/01/13 00:21:07;;;;;;;37.72;16.30;;;;;;;;;;6245505;22;20436;-77
2024/01/13 00:23:35;;;;;;;33.25;16.17;;;;;;;;;;6244962;22;20027;-77
2024/01/13 00:26:02;;;;;;;43.58;17.08;;;;;;;;;;6244252;22;20034;-78
2024/01/13 00:28:29;;;;;;;36.00;16.98;;;;;;;;;;6243617;22;20471;-77
2024/01/13 00:31:06;;;;;;;38.90;17.60;;;;;;;;;;6244225;22;20095;-77
2024/01/13 00:33:34;;;;;;;35.65;17.45;;;;;;;;;;6244026;22;20048;-77
2024/01/13 00:36:02;;;;;;;37.60;16.63;;;;;;;;;;6244339;22;20031;-78
2024/01/13 00:38:29;;;;;;;40.10;16.10;;;;;;;;;;6244392;22;20012;-77
2024/01/13 00:41:05;;;;;;;37.92;16.40;;;;;;;;;;6246208;22;20020;-78
2024/01/13 00:43:35;;;;;;;35.63;15.60;;;;;;;;;;6246113;22;20043;-77
2024/01/13 00:46:02;;;;;;;39.00;16.80;;;;;;;;;;6246017;22;20074;-78
2024/01/13 00:48:28;;;;;;;34.17;16.08;;;;;;;;;;6245454;22;20019;-77
2024/01/13 00:51:09;;;;;;;31.02;16.13;;;;;;;;;;6245605;22;20152;-77
2024/01/13 00:53:38;;;;;;;36.92;16.15;;;;;;;;;;6269834;22;20016;-78
2024/01/13 00:56:06;;;;;;;34.10;15.40;;;;;;;;;;6245660;22;20012;-77
2024/01/13 00:58:34;;;;;;;33.10;15.10;;;;;;;;;;6244826;23;20016;-77
2024/01/13 01:01:13;;;;;;;32.05;16.33;;;;;;;;;;6245679;22;20019;-77
2024/01/13 01:03:43;;;;;;;41.05;15.43;;;;;;;;;;6246120;22;20020;-77
2024/01/13 01:06:10;;;;;;;31.50;16.23;;;;;;;;;;6245644;22;20012;-77
2024/01/13 01:08:37;;;;;;;36.00;15.80;;;;;;;;;;6245860;22;20012;-77
2024/01/13 01:11:07;;;;;;;33.38;15.35;;;;;;;;;;6245597;22;20012;-77
2024/01/13 01:13:35;;;;;;;34.13;15.10;;;;;;;;;;6246078;22;20056;-77
2024/01/13 01:16:02;;;;;;;30.08;15.45;;;;;;;;;;6246214;22;20333;-77
2024/01/13 01:18:28;;;;;;;30.00;14.10;;;;;;;;;;6245431;22;20016;-76
2024/01/13 01:21:10;;;;;;;32.97;15.13;;;;;;;;;;6245459;22;20039;-77
2024/01/13 01:23:38;;;;;;;32.22;15.65;;;;;;;;;;6246147;22;20016;-76
2024/01/13 01:26:05;;;;;;;33.90;15.57;;;;;;;;;;6245497;22;20441;-76
2024/01/13 01:28:32;;;;;;;30.98;15.57;;;;;;;;;;6244250;23;20058;-76
2024/01/13 01:31:06;;;;;;;30.80;15.85;;;;;;;;;;6245731;22;20034;-77
2024/01/13 01:33:34;;;;;;;43.17;14.68;;;;;;;;;;6245564;22;20051;-77
2024/01/13 01:36:02;;;;;;;37.22;17.05;;;;;;;;;;6245737;22;20016;-77
2024/01/13 01:38:29;;;;;;;37.22;15.88;;;;;;;;;;6245728;22;20051;-77
2024/01/13 01:41:10;;;;;;;30.00;15.30;;;;;;;;;;6246204;22;20028;-77
2024/01/13 01:43:37;;;;;;;35.78;15.77;;;;;;;;;;6246686;22;20405;-76
2024/01/13 01:46:04;;;;;;;36.20;16.00;;;;;;;;;;6243660;22;20337;-77
2024/01/13 01:48:39;;;;;;;40.60;16.88;;;;;;;;;;6244496;22;20083;-76
2024/01/13 01:51:10;;;;;;;33.47;15.80;;;;;;;;;;6244074;22;20020;-76
2024/01/13 01:53:39;;;;;;;38.00;16.40;;;;;;;;;;6244197;22;20437;-77
2024/01/13 01:56:11;;;;;;;31.25;16.88;;;;;;;;;;6244067;22;20023;-78
2024/01/13 01:58:39;;;;;;;36.28;17.00;;;;;;;;;;6248712;22;20016;-79
2024/01/13 02:01:07;;;;;;;41.88;17.65;;;;;;;;;;6256728;22;20016;-78
2024/01/13 02:03:36;;;;;;;35.45;15.90;;;;;;;;;;6256425;22;20099;-78
2024/01/13 02:06:05;;;;;;;32.17;17.13;;;;;;;;;;6257879;22;20306;-77
2024/01/13 02:08:32;;;;;;;29.85;16.15;;;;;;;;;;6256490;22;20096;-77
2024/01/13 02:11:11;;;;;;;34.70;16.75;;;;;;;;;;6247535;22;20019;-79
2024/01/13 02:13:41;;;;;;;39.83;16.08;;;;;;;;;;6245778;22;20016;-78
2024/01/13 02:16:09;;;;;;;37.00;16.90;;;;;;;;;;6245360;22;20017;-78
2024/01/13 02:18:36;;;;;;;36.42;17.45;;;;;;;;;;6245405;22;20467;-78
2024/01/13 02:21:09;;;;;;;30.80;17.23;;;;;;;;;;6245147;22;20016;-77
2024/01/13 02:23:38;;;;;;;34.90;16.52;;;;;;;;;;6245459;22;20040;-77
2024/01/13 02:26:06;;;;;;;42.30;17.83;;;;;;;;;;6245031;22;20127;-76
2024/01/13 02:28:33;;;;;;;42.25;17.85;;;;;;;;;;6245159;22;20429;-77
2024/01/13 02:31:15;;;;;;;32.03;17.40;;;;;;;;;;6244617;22;20449;-77
2024/01/13 02:33:47;;;;;;;36.80;17.92;;;;;;;;;;6268216;22;20020;-77
2024/01/13 02:36:14;;;;;;;39.80;16.92;;;;;;;;;;6245014;22;20325;-77
2024/01/13 02:38:41;;;;;;;39.10;17.70;;;;;;;;;;6245654;22;20433;-77
2024/01/13 02:41:08;;;;;;;42.35;17.70;;;;;;;;;;6244910;22;20043;-77
2024/01/13 02:43:36;;;;;;;34.75;17.73;;;;;;;;;;6245374;22;20371;-76
2024/01/13 02:46:03;;;;;;;34.72;17.58;;;;;;;;;;6245468;22;20064;-77
2024/01/13 02:48:42;;;;;;;49.90;18.83;;;;;;;;;;6244820;22;20495;-78
2024/01/13 02:51:13;;;;;;;48.58;18.13;;;;;;;;;;6243523;22;20026;-77
2024/01/13 02:53:41;;;;;;;41.58;17.98;;;;;;;;;;6243544;22;20467;-77
2024/01/13 02:56:08;;;;;;;38.22;17.48;;;;;;;;;;6243549;22;20013;-77
2024/01/13 02:58:35;;;;;;;35.45;17.95;;;;;;;;;;6243859;22;20020;-77
2024/01/13 03:01:11;;;;;;;41.80;17.90;;;;;;;;;;6243320;22;20437;-76
2024/01/13 03:03:38;;;;;;;36.00;16.55;;;;;;;;;;6244164;22;20039;-77
2024/01/13 03:06:06;;;;;;;42.28;18.45;;;;;;;;;;6245028;22;20051;-77
2024/01/13 03:08:34;;;;;;;39.05;18.02;;;;;;;;;;6269414;22;20029;-77
2024/01/13 03:11:11;;;;;;;32.38;16.80;;;;;;;;;;6246660;22;20087;-78
2024/01/13 03:13:40;;;;;;;35.85;18.27;;;;;;;;;;6247623;22;20058;-77
2024/01/13 03:16:07;;;;;;;40.78;17.58;;;;;;;;;;6247473;22;20012;-78
2024/01/13 03:18:34;;;;;;;36.63;18.45;;;;;;;;;;6246575;22;20028;-77
2024/01/13 03:21:11;;;;;;;39.88;17.75;;;;;;;;;;6246868;22;20295;-78
2024/01/13 03:23:41;;;;;;;42.42;18.30;;;;;;;;;;6247008;22;20043;-78
2024/01/13 03:26:09;;;;;;;39.03;17.33;;;;;;;;;;6246763;22;20023;-78
2024/01/13 03:28:36;;;;;;;36.38;17.65;;;;;;;;;;6247139;22;20020;-77
2024/01/13 03:31:09;;;;;;;38.80;16.75;;;;;;;;;;6246557;22;20074;-77
2024/01/13 03:33:37;;;;;;;30.98;16.65;;;;;;;;;;6247017;22;20020;-78
2024/01/13 03:36:05;;;;;;;44.95;18.55;;;;;;;;;;6246699;22;20318;-77
2024/01/13 03:38:32;;;;;;;40.33;17.80;;;;;;;;;;6245549;23;20070;-77
2024/01/13 03:41:09;;;;;;;37.72;18.10;;;;;;;;;;6246350;22;20016;-77
2024/01/13 03:43:35;;;;;;;42.78;17.98;;;;;;;;;;6247012;22;20487;-77
2024/01/13 03:46:03;;;;;;;45.78;18.05;;;;;;;;;;6246637;22;20024;-78
2024/01/13 03:48:30;;;;;;;36.33;17.17;;;;;;;;;;6246695;22;20020;-76
2024/01/13 03:50:58;;;;;;;37.45;17.02;;;;;;;;;;6247118;22;20016;-77
2024/01/13 03:53:25;;;;;;;40.22;17.77;;;;;;;;;;6249408;22;20016;-77
2024/01/13 03:55:52;;;;;;;40.55;17.95;;;;;;;;;;6258812;22;20016;-78
2024/01/13 03:58:19;;;;;;;34.83;17.67;;;;;;;;;;6259129;22;20016;-78
2024/01/13 04:00:46;;;;;;;41.03;18.27;;;;;;;;;;6260035;22;20016;-77
2024/01/13 04:03:17;;;;;;;42.15;18.48;;;;;;;;;;6258301;22;20064;-77
2024/01/13 04:05:44;;;;;;;38.17;18.13;;;;;;;;;;6252360;22;20024;-77
2024/01/13 04:08:11;;;;;;;44.40;18.58;;;;;;;;;;6244776;22;20012;-76
2024/01/13 04:10:38;;;;;;;37.97;17.75;;;;;;;;;;6246711;22;20016;-78
2024/01/13 04:13:09;;;;;;;39.75;18.45;;;;;;;;;;6246296;22;20012;-77
2024/01/13 04:15:36;;;;;;;40.08;19.55;;;;;;;;;;6246477;22;20333;-76
2024/01/13 04:18:03;;;;;;;39.30;18.25;;;;;;;;;;6246516;22;20020;-77
2024/01/13 04:20:30;;;;;;;45.90;19.45;;;;;;;;;;6246306;22;20042;-77
2024/01/13 04:22:57;;;;;;;43.53;20.20;;;;;;;;;;6246528;22;20016;-76
2024/01/13 04:25:23;;;;;;;41.75;17.98;;;;;;;;;;6245941;22;20020;-79
2024/01/13 04:27:52;;;;;;;44.63;18.95;;;;;;;;;;6246386;22;20023;-76
2024/01/13 04:30:19;;;;;;;39.00;17.83;;;;;;;;;;6245897;22;20016;-77
2024/01/13 04:32:46;;;;;;;43.67;18.45;;;;;;;;;;6246601;22;20126;-75
2024/01/13 04:35:13;;;;;;;43.90;18.13;;;;;;;;;;6245965;22;20058;-77
2024/01/13 04:37:40;;;;;;;38.03;18.10;;;;;;;;;;6246502;22;20115;-77
2024/01/13 04:40:08;;;;;;;41.25;17.75;;;;;;;;;;6245674;22;20078;-77
2024/01/13 04:42:35;;;;;;;42.08;18.38;;;;;;;;;;6246258;22;20437;-76
2024/01/13 04:45:02;;;;;;;42.05;18.63;;;;;;;;;;6246029;22;20024;-76
2024/01/13 04:47:29;;;;;;;39.92;18.42;;;;;;;;;;6246085;22;20023;-76
2024/01/13 04:49:56;;;;;;;43.78;18.58;;;;;;;;;;6246172;22;20016;-76
2024/01/13 04:52:24;;;;;;;36.75;18.17;;;;;;;;;;6244042;22;20038;-76
2024/01/13 04:54:50;;;;;;;42.95;18.27;;;;;;;;;;6246287;22;20334;-76
2024/01/13 04:57:17;;;;;;;36.72;18.00;;;;;;;;;;6245787;22;20013;-76
2024/01/13 04:59:45;;;;;;;47.05;18.42;;;;;;;;;;6246071;22;20012;-76
2024/01/13 05:02:12;;;;;;;38.20;18.20;;;;;;;;;;6245593;22;20364;-76
2024/01/13 05:04:39;;;;;;;35.97;17.75;;;;;;;;;;6246265;22;20087;-77
2024/01/13 05:07:07;;;;;;;45.38;19.17;;;;;;;;;;6245527;22;20318;-76
2024/01/13 05:09:34;;;;;;;41.13;18.92;;;;;;;;;;6246149;22;20036;-76
2024/01/13 05:12:01;;;;;;;44.70;18.58;;;;;;;;;;6245913;22;20028;-77
2024/01/13 05:14:30;;;;;;;35.30;18.80;;;;;;;;;;6245675;22;20020;-76
2024/01/13 05:16:59;;;;;;;38.20;18.25;;;;;;;;;;6246080;22;20468;-77
2024/01/13 05:19:26;;;;;;;40.90;19.35;;;;;;;;;;6245524;22;20034;-76
2024/01/13 05:21:53;;;;;;;37.28;18.83;;;;;;;;;;6245691;22;20024;-77
2024/01/13 05:24:20;;;;;;;46.50;20.30;;;;;;;;;;6245522;22;20012;-76
2024/01/13 05:26:46;;;;;;;48.40;19.45;;;;;;;;;;6245913;22;20022;-77
2024/01/13 05:29:13;;;;;;;39.83;19.13;;;;;;;;;;6245404;22;20050;-77
2024/01/13 05:31:41;;;;;;;45.80;20.88;;;;;;;;;;6246051;22;20036;-77
2024/01/13 05:34:08;;;;;;;46.38;20.08;;;;;;;;;;6243773;22;20446;-77
2024/01/13 05:36:35;;;;;;;42.22;19.45;;;;;;;;;;6246321;22;20364;-76
2024/01/13 05:39:02;;;;;;;36.58;18.38;;;;;;;;;;6246651;22;20016;-77
2024/01/13 05:41:29;;;;;;;33.92;18.45;;;;;;;;;;6246395;22;20024;-77
2024/01/13 05:43:56;;;;;;;41.13;19.48;;;;;;;;;;6246699;22;20020;-77
2024/01/13 05:46:23;;;;;;;38.70;19.38;;;;;;;;;;6247454;22;20027;-77
2024/01/13 05:48:50;;;;;;;46.35;19.77;;;;;;;;;;6252250;22;20020;-77
2024/01/13 05:51:19;;;;;;;34.47;18.02;;;;;;;;;;6253468;22;20027;-75
2024/01/13 05:53:45;;;;;;;44.38;19.55;;;;;;;;;;6255073;22;20016;-77
2024/01/13 05:56:12;;;;;;;46.75;19.58;;;;;;;;;;6253984;22;20362;-76
2024/01/13 05:58:41;;;;;;;38.00;18.17;;;;;;;;;;6255151;22;20019;-76
2024/01/13 06:01:07;;;;;;;47.25;20.38;;;;;;;;;;6251892;22;20016;-76
2024/01/13 06:03:34;;;;;;;46.85;20.23;;;;;;;;;;6245862;22;20023;-75
2024/01/13 06:06:02;;;;;;;41.10;19.88;;;;;;;;;;6245534;22;20023;-77
2024/01/13 06:08:29;;;;;;;44.13;18.88;;;;;;;;;;6243519;23;20432;-77
2024/01/13 06:10:56;;;;;;;52.30;20.95;;;;;;;;;;6245616;22;20012;-76
2024/01/13 06:13:23;;;;;;;49.33;20.17;;;;;;;;;;6244988;22;20026;-77
2024/01/13 06:15:49;;;;;;;41.72;18.52;;;;;;;;;;6245417;22;20012;-77
2024/01/13 06:18:16;;;;;;;41.75;18.13;;;;;;;;;;6245105;22;20062;-76
2024/01/13 06:20:43;;;;;;;46.15;20.00;;;;;;;;;;6245765;22;20016;-76
2024/01/13 06:23:10;;;;;;;35.65;18.35;;;;;;;;;;6244996;22;20008;-76
2024/01/13 06:25:37;;;;;;;42.95;20.35;;;;;;;;;;6245503;22;20012;-75
2024/01/13 06:28:03;;;;;;;42.47;18.73;;;;;;;;;;6243430;22;20324;-76
2024/01/13 06:30:30;;;;;;;44.30;18.55;;;;;;;;;;6245493;22;20012;-77
2024/01/13 06:32:57;;;;;;;34.63;18.00;;;;;;;;;;6245500;22;20437;-78
2024/01/13 06:35:24;;;;;;;48.08;19.80;;;;;;;;;;6244883;22;20012;-77
2024/01/13 06:37:51;;;;;;;45.17;20.15;;;;;;;;;;6245496;22;20022;-77
2024/01/13 06:40:18;;;;;;;45.35;19.60;;;;;;;;;;6244864;22;20028;-77
2024/01/13 06:42:45;;;;;;;40.80;18.80;;;;;;;;;;6245477;22;20078;-76
2024/01/13 06:45:12;;;;;;;42.97;17.85;;;;;;;;;;6245544;22;20020;-77
2024/01/13 06:47:38;;;;;;;47.30;19.45;;;;;;;;;;6247759;22;20063;-77
2024/01/13 06:50:06;;;;;;;47.10;20.23;;;;;;;;;;6246794;22;20044;-76
2024/01/13 06:52:32;;;;;;;40.75;19.27;;;;;;;;;;6247368;22;20016;-76
2024/01/13 06:55:00;;;;;;;42.65;18.13;;;;;;;;;;6247506;22;20020;-77
2024/01/13 06:57:26;;;;;;;43.25;19.70;;;;;;;;;;6246897;22;20020;-76
2024/01/13 06:59:53;;;;;;;46.42;19.20;;;;;;;;;;6247521;22;20059;-77
2024/01/13 07:02:20;;;;;;;40.15;18.20;;;;;;;;;;6246800;22;20012;-77
2024/01/13 07:04:50;;;;;;;37.85;18.88;;;;;;;;;;6247597;22;20017;-77
2024/01/13 07:07:16;;;;;;;43.42;19.90;;;;;;;;;;6246675;22;20016;-76
2024/01/13 07:09:43;;;;;;;46.75;18.90;;;;;;;;;;6246968;22;20020;-77
2024/01/13 07:12:10;;;;;;;42.58;18.85;;;;;;;;;;6246823;22;20016;-76
2024/01/13 07:14:37;;;;;;;42.55;19.50;;;;;;;;;;6247195;22;20020;-77
2024/01/13 07:17:03;;;;;;;57.10;21.02;;;;;;;;;;6270978;22;20027;-76
2024/01/13 07:19:30;;;;;;;40.80;18.55;;;;;;;;;;6246928;22;20034;-77
2024/01/13 07:21:58;;;;;;;45.88;20.50;;;;;;;;;;6247083;22;20016;-77
2024/01/13 07:24:25;;;;;;;44.67;19.63;;;;;;;;;;6246566;22;20030;-78
2024/01/13 07:26:51;;;;;;;48.10;19.95;;;;;;;;;;6247047;22;20040;-76
2024/01/13 07:29:19;;;;;;;48.88;20.85;;;;;;;;;;6246677;22;20016;-77
2024/01/13 07:31:46;;;;;;;50.67;23.02;;;;;;;;;;6246955;22;20372;-77
2024/01/13 07:34:13;;;;;;;46.70;20.55;;;;;;;;;;6246630;22;20369;-76
2024/01/13 07:36:40;;;;;;;44.72;20.90;;;;;;;;;;6247325;22;20039;-76
2024/01/13 07:39:09;;;;;;;40.13;19.10;;;;;;;;;;6246720;22;20012;-78
2024/01/13 07:41:36;;;;;;;48.25;19.90;;;;;;;;;;6248939;22;20119;-76
2024/01/13 07:44:03;;;;;;;46.05;20.90;;;;;;;;;;6255066;22;20020;-76
2024/01/13 07:46:30;;;;;;;46.75;20.27;;;;;;;;;;6249062;22;20019;-78
2024/01/13 07:48:57;;;;;;;43.53;19.92;;;;;;;;;;6252377;22;20022;-78
2024/01/13 07:51:24;;;;;;;48.45;20.80;;;;;;;;;;6246388;22;21151;-79
2024/01/13 07:54:00;;;;;;;49.10;19.88;;;;;;;;;;6245197;22;20020;-76
2024/01/13 07:56:27;;;;;;;43.53;19.42;;;;;;;;;;6244365;22;20020;-76
2024/01/13 07:58:53;;;;;;;52.92;20.15;;;;;;;;;;6245619;22;20012;-77
2024/01/13 08:01:20;;;;;;;50.17;20.85;;;;;;;;;;6244417;22;20095;-76
2024/01/13 08:04:00;;;;;;;44.25;19.73;;;;;;;;;;6243661;23;20047;-77
2024/01/13 08:06:29;;;;;;;42.28;20.40;;;;;;;;;;6244397;22;20020;-77
2024/01/13 08:08:57;;;;;;;45.05;20.63;;;;;;;;;;6244773;22;20444;-77
2024/01/13 08:11:24;;;;;;;43.22;20.67;;;;;;;;;;6244643;22;20035;-78
2024/01/13 08:14:03;;;;;;;49.60;20.95;;;;;;;;;;6245240;22;20372;-77
2024/01/13 08:16:31;;;;;;;42.70;20.55;;;;;;;;;;6244485;22;20322;-76
2024/01/13 08:19:00;;;;;;;54.97;21.33;;;;;;;;;;6245069;22;20035;-77
2024/01/13 08:21:28;;;;;;;55.22;20.38;;;;;;;;;;6244250;22;20016;-78
2024/01/13 08:24:05;;;;;;;51.28;22.73;;;;;;;;;;6244475;22;20074;-76
2024/01/13 08:26:32;;;;;;;43.58;22.13;;;;;;;;;;6244883;22;20012;-76
2024/01/13 08:28:59;;;;;;;53.38;21.42;;;;;;;;;;6244751;22;20016;-76
2024/01/13 08:31:26;;;;;;;48.67;21.42;;;;;;;;;;6244367;22;20020;-77
2024/01/13 08:34:05;;;;;;;51.75;21.90;;;;;;;;;;6244327;22;20523;-77
2024/01/13 08:36:32;;;;;;;49.75;21.38;;;;;;;;;;6244877;22;20020;-77
2024/01/13 08:38:59;;;;;;;53.38;22.15;;;;;;;;;;6244642;22;20020;-77
2024/01/13 08:41:26;;;;;;;51.38;22.08;;;;;;;;;;6244253;22;20040;-76
2024/01/13 08:44:00;;;;;;;54.05;22.05;;;;;;;;;;6244731;22;20016;-76
2024/01/13 08:46:27;;;;;;;55.13;22.65;;;;;;;;;;6243967;22;20070;-77
2024/01/13 08:48:53;;;;;;;53.75;23.00;;;;;;;;;;6244732;22;20016;-76
2024/01/13 08:51:21;;;;;;;50.28;22.20;;;;;;;;;;6243982;22;20329;-78
2024/01/13 08:54:01;;;;;;;59.70;25.75;;;;;;;;;;6244691;22;20016;-77
2024/01/13 08:56:28;;;;;;;62.95;25.55;;;;;;;;;;6244351;22;20449;-77
2024/01/13 08:58:55;;;;;;;56.63;23.25;;;;;;;;;;6244730;22;20453;-78
2024/01/13 09:01:22;;;;;;;55.67;22.63;;;;;;;;;;6243340;22;20020;-78
2024/01/13 09:04:02;;;;;;;59.72;23.40;;;;;;;;;;6243134;22;20022;-77
2024/01/13 09:06:29;;;;;;;57.17;24.27;;;;;;;;;;6242872;22;20445;-77
2024/01/13 09:08:55;;;;;;;56.13;23.45;;;;;;;;;;6242719;22;20092;-78
2024/01/13 09:11:22;;;;;;;57.63;24.08;;;;;;;;;;6240882;22;20520;-77
2024/01/13 09:14:05;;;;;;;58.67;24.23;;;;;;;;;;6242774;22;20012;-76
2024/01/13 09:16:31;;;;;;;70.35;26.80;;;;;;;;;;6243295;22;20442;-79
2024/01/13 09:18:58;;;;;;;61.72;26.30;;;;;;;;;;6243783;22;20016;-77
2024/01/13 09:21:25;;;;;;;64.85;26.88;;;;;;;;;;6243774;22;20024;-76
2024/01/13 09:24:06;;;;;;;66.10;27.75;;;;;;;;;;6244466;22;20085;-75
2024/01/13 09:26:39;;;;;;;71.10;27.00;;;;;;;;;;6244186;22;20027;-76
2024/01/13 09:29:06;;;;;;;64.28;27.60;;;;;;;;;;6244170;22;20545;-76
2024/01/13 09:31:32;;;;;;;55.60;25.80;;;;;;;;;;6241708;22;20012;-76
2024/01/13 09:34:07;;;;;;;59.67;27.10;;;;;;;;;;6242684;22;20016;-77
2024/01/13 09:36:36;;;;;;;58.17;26.80;;;;;;;;;;6243321;22;20331;-77
2024/01/13 09:39:03;;;;;;;73.53;28.67;;;;;;;;;;6243677;22;20035;-78
2024/01/13 09:41:30;;;;;;;60.22;28.60;;;;;;;;;;6242379;22;20019;-77
2024/01/13 09:44:21;;;;;;;74.00;29.40;;;;;;;;;;6243060;22;20432;-77
2024/01/13 09:46:51;;;;;;;67.43;32.33;;;;;;;;;;6184524;23;20021;-77
2024/01/13 09:49:20;;;;;;;68.32;30.13;;;;;;;;;;6183190;23;20028;-77
2024/01/13 09:51:48;;;;;;;72.25;30.50;;;;;;;;;;6183749;23;20454;-77
2024/01/13 09:54:22;;;;;;;61.72;27.60;;;;;;;;;;6183047;23;20437;-76
2024/01/13 09:56:50;;;;;;;64.80;26.20;;;;;;;;;;6183172;23;20093;-77
2024/01/13 09:59:21;;;;;;;67.97;27.10;;;;;;;;;;6181873;23;20013;-76
2024/01/13 10:01:51;;;;;;;69.38;28.20;;;;;;;;;;6182241;23;20013;-76
2024/01/13 10:04:19;;;;;;;55.60;24.63;;;;;;;;;;6182171;23;20529;-77
2024/01/13 10:06:50;;;;;;;61.05;25.80;;;;;;;;;;6182906;23;20024;-76
2024/01/13 10:09:17;;;;;;;57.47;25.70;;;;;;;;;;6181727;23;20021;-76
2024/01/13 10:12:05;;;;;;;61.83;24.63;;;;;;;;;;6182324;23;20024;-76
2024/01/13 10:14:38;;;;;;;60.50;28.08;;;;;;;;;;6182368;23;20025;-76
2024/01/13 10:17:06;;;;;;;73.25;30.98;;;;;;;;;;6182750;23;20453;-77
2024/01/13 10:19:42;;;;;;;66.38;25.45;;;;;;;;;;6185598;23;20017;-76
2024/01/13 10:22:11;;;;;;;62.53;27.08;;;;;;;;;;6186584;23;20021;-76
2024/01/13 10:24:38;;;;;;;61.55;26.92;;;;;;;;;;6186936;23;20012;-77
2024/01/13 10:27:05;;;;;;;80.00;29.02;;;;;;;;;;6185641;23;20027;-76
2024/01/13 10:29:32;;;;;;;67.47;27.48;;;;;;;;;;6185103;23;20037;-77
2024/01/13 10:32:01;;;;;;;58.15;24.95;;;;;;;;;;6185822;23;20124;-77
2024/01/13 10:34:30;;;;;;;67.80;26.77;;;;;;;;;;6184904;23;20028;-77
2024/01/13 10:37:10;;;;;;;67.15;28.48;;;;;;;;;;6185259;23;20021;-78
2024/01/13 10:39:38;;;;;;;72.25;31.35;;;;;;;;;;6185825;23;20025;-77
2024/01/13 10:42:13;;;;;;;66.07;28.30;;;;;;;;;;6185266;23;20017;-78
2024/01/13 10:44:45;;;;;;;67.70;27.55;;;;;;;;;;6200679;23;20463;-76
2024/01/13 10:47:16;;;;;;;67.15;25.65;;;;;;;;;;6245948;22;20570;-77
2024/01/13 10:49:47;;;;;;;64.78;24.50;;;;;;;;;;6247640;22;20040;-77
2024/01/13 10:52:18;;;;;;;67.40;26.08;;;;;;;;;;6246608;22;20054;-78
2024/01/13 10:54:45;;;;;;;69.05;25.42;;;;;;;;;;6247858;22;20020;-78
2024/01/13 10:57:13;;;;;;;63.30;26.30;;;;;;;;;;6246313;22;20016;-79
2024/01/13 10:59:43;;;;;;;73.68;27.42;;;;;;;;;;6249059;22;20039;-78
2024/01/13 11:02:12;;;;;;;72.18;27.70;;;;;;;;;;6253044;22;20016;-78
2024/01/13 11:04:41;;;;;;;66.25;25.98;;;;;;;;;;6254611;22;20020;-78
2024/01/13 11:07:09;;;;;;;69.50;26.50;;;;;;;;;;6252196;22;20020;-78
2024/01/13 11:09:37;;;;;;;62.13;25.05;;;;;;;;;;6253128;22;20020;-76
2024/01/13 11:12:04;;;;;;;74.13;27.67;;;;;;;;;;6275668;22;20016;-77
2024/01/13 11:14:36;;;;;;;63.42;25.38;;;;;;;;;;6253980;22;20008;-77
2024/01/13 11:17:04;;;;;;;70.82;27.65;;;;;;;;;;6247423;22;20460;-76
2024/01/13 11:19:35;;;;;;;57.40;24.52;;;;;;;;;;6245388;22;20024;-77
2024/01/13 11:22:32;;;;;;;65.72;25.50;;;;;;;;;;6246970;22;20020;-78
2024/01/13 11:25:25;;;;;;;65.20;25.60;;;;;;;;;;6245802;22;20016;-77
2024/01/13 11:28:01;;;;;;;63.50;25.55;;;;;;;;;;6246993;22;20373;-77
2024/01/13 11:30:49;;;;;;;69.28;25.67;;;;;;;;;;6244020;22;20019;-81
2024/01/13 11:33:16;;;;;;;58.95;25.65;;;;;;;;;;6268598;22;20023;-78
2024/01/13 11:35:46;;;;;;;68.18;27.40;;;;;;;;;;6245445;22;20095;-80
2024/01/13 11:38:14;;;;;;;70.35;27.35;;;;;;;;;;6243516;22;20073;-81
2024/01/13 11:40:46;;;;;;;68.90;29.38;;;;;;;;;;6244383;23;20075;-77
2024/01/13 11:43:26;;;;;;;69.80;28.83;;;;;;;;;;6244966;22;20069;-76
2024/01/13 11:45:53;;;;;;;81.30;31.25;;;;;;;;;;6245282;22;20027;-78
2024/01/13 11:48:30;;;;;;;75.90;32.45;;;;;;;;;;6244761;22;20437;-78
2024/01/13 11:50:59;;;;;;;69.55;29.67;;;;;;;;;;6245184;22;20074;-77
2024/01/13 11:53:35;;;;;;;70.03;29.75;;;;;;;;;;6244876;22;20087;-77
2024/01/13 11:56:04;;;;;;;83.32;31.00;;;;;;;;;;6245298;22;20453;-78
2024/01/13 11:58:31;;;;;;;65.43;28.45;;;;;;;;;;6243428;23;20075;-78
2024/01/13 12:00:58;;;;;;;60.95;24.75;;;;;;;;;;6245031;22;20322;-78
2024/01/13 12:03:25;;;;;;;56.65;24.35;;;;;;;;;;6244954;22;20423;-78
2024/01/13 12:05:52;;;;;;;75.00;35.05;;;;;;;;;;6245036;22;20035;-78
2024/01/13 12:08:19;;;;;;;89.38;43.20;;;;;;;;;;6244070;22;20016;-78
2024/01/13 12:10:49;;;;;;;54.25;24.95;;;;;;;;;;6244861;22;20024;-78
2024/01/13 12:13:17;;;;;;;59.80;25.65;;;;;;;;;;6266346;22;20016;-78
2024/01/13 12:15:47;;;;;;;53.87;23.37;;;;;;;;;;6244615;22;20042;-78
2024/01/13 12:18:21;;;;;;;62.50;26.05;;;;;;;;;;6244891;22;20095;-84
2024/01/13 12:21:01;;;;;;;57.00;25.50;;;;;;;;;;6245169;22;20023;-82
2024/01/13 12:23:28;;;;;;;61.58;27.88;;;;;;;;;;6267572;22;20024;-78
2024/01/13 12:25:56;;;;;;;56.17;24.40;;;;;;;;;;6245056;22;20020;-77
2024/01/13 12:28:36;;;;;;;55.85;25.08;;;;;;;;;;6244689;22;20081;-77
2024/01/13 12:31:04;;;;;;;65.38;29.13;;;;;;;;;;6244892;22;20019;-77
2024/01/13 12:33:31;;;;;;;62.55;29.95;;;;;;;;;;6244488;22;20307;-78
2024/01/13 12:36:07;;;;;;;67.20;31.23;;;;;;;;;;6244201;22;20026;-78
2024/01/13 12:38:36;;;;;;;70.63;31.10;;;;;;;;;;6244887;22;20467;-78
2024/01/13 12:41:04;;;;;;;58.08;27.67;;;;;;;;;;6244837;22;20027;-79
2024/01/13 12:43:31;;;;;;;56.27;28.07;;;;;;;;;;6244497;22;20016;-77
2024/01/13 12:46:02;;;;;;;56.72;27.08;;;;;;;;;;6243292;22;20016;-78
2024/01/13 12:48:29;;;;;;;57.58;25.40;;;;;;;;;;6245697;22;20429;-77
2024/01/13 12:51:06;;;;;;;63.10;27.63;;;;;;;;;;6246455;22;20028;-77
2024/01/13 12:53:33;;;;;;;60.30;26.15;;;;;;;;;;6244375;23;20020;-78
2024/01/13 12:56:00;;;;;;;61.10;27.90;;;;;;;;;;6246220;22;20434;-78
2024/01/13 12:58:27;;;;;;;64.20;26.88;;;;;;;;;;6244744;22;20020;-78
2024/01/13 13:00:54;;;;;;;72.70;32.70;;;;;;;;;;6247570;22;20024;-78
2024/01/13 13:03:21;;;;;;;67.90;31.90;;;;;;;;;;6249222;22;20016;-78
2024/01/13 13:05:47;;;;;;;67.65;32.38;;;;;;;;;;6249935;22;20022;-77
2024/01/13 13:08:15;;;;;;;65.32;28.40;;;;;;;;;;6247787;22;20016;-79
2024/01/13 13:10:41;;;;;;;60.45;27.13;;;;;;;;;;6247390;22;20047;-77
2024/01/13 13:13:09;;;;;;;51.50;26.20;;;;;;;;;;6243846;22;20036;-78
2024/01/13 13:15:35;;;;;;;56.45;25.80;;;;;;;;;;6243677;22;20074;-76
2024/01/13 13:18:03;;;;;;;63.03;26.85;;;;;;;;;;6243790;22;20074;-79
2024/01/13 13:20:32;;;;;;;58.35;26.40;;;;;;;;;;6241521;22;20491;-76
2024/01/13 13:22:59;;;;;;;55.50;24.13;;;;;;;;;;6243574;22;20507;-78
2024/01/13 13:25:25;;;;;;;53.75;25.58;;;;;;;;;;6243771;22;20425;-77
2024/01/13 13:27:53;;;;;;;59.47;28.33;;;;;;;;;;6245830;22;20031;-77
2024/01/13 13:30:20;;;;;;;55.40;26.42;;;;;;;;;;6245348;22;20067;-77
2024/01/13 13:32:47;;;;;;;56.60;25.98;;;;;;;;;;6246054;22;20024;-78
2024/01/13 13:35:16;;;;;;;56.50;26.30;;;;;;;;;;6245395;22;20067;-79
2024/01/13 13:37:47;;;;;;;;;;;;;;;;;;6244878;23;20023;-75
2024/01/13 13:40:15;;;;;;;53.83;23.10;;;;;;;;;;6245220;22;19983;-78
2024/01/13 13:42:42;;;;;;;55.85;24.48;;;;;;;;;;6269822;22;20437;-78
2024/01/13 13:45:12;;;;;;;55.83;25.27;;;;;;;;;;6244931;22;20016;-77
2024/01/13 13:47:41;;;;;;;50.08;23.55;;;;;;;;;;6245831;22;20016;-77
2024/01/13 13:50:09;;;;;;;54.17;25.92;;;;;;;;;;6245205;22;20464;-78
2024/01/13 13:52:36;;;;;;;51.45;23.02;;;;;;;;;;6245826;22;20082;-78
2024/01/13 13:55:04;;;;;;;55.53;26.88;;;;;;;;;;6245819;22;20020;-78
2024/01/13 13:57:37;;;;;;;50.40;25.88;;;;;;;;;;6245238;22;20100;-79
2024/01/13 14:00:07;;;;;;;50.50;24.40;;;;;;;;;;6245684;22;20012;-77
2024/01/13 14:02:35;;;;;;;56.33;25.30;;;;;;;;;;6243870;23;20036;-77
2024/01/13 14:05:03;;;;;;;54.55;26.00;;;;;;;;;;6245724;22;20012;-78
2024/01/13 14:07:43;;;;;;;55.83;25.50;;;;;;;;;;6245332;22;20030;-78
2024/01/13 14:10:10;;;;;;;53.08;24.60;;;;;;;;;;6244941;22;20012;-79
2024/01/13 14:12:37;;;;;;;59.42;26.75;;;;;;;;;;6245471;22;20038;-77
2024/01/13 14:15:04;;;;;;;51.30;24.63;;;;;;;;;;6245505;22;20020;-78
2024/01/13 14:17:43;;;;;;;;;;;;;;;;;;6245797;22;20030;-79
2024/01/13 14:20:10;;;;;;;44.95;21.75;;;;;;;;;;6244581;22;19990;-77
2024/01/13 14:22:43;;;;;;;55.28;25.63;;;;;;;;;;6245538;22;20019;-77
2024/01/13 14:25:10;;;;;;;52.10;24.20;;;;;;;;;;6244863;22;20023;-78
2024/01/13 14:27:42;;;;;;;50.22;23.52;;;;;;;;;;6245347;22;20437;-76
2024/01/13 14:30:09;;;;;;;50.47;23.85;;;;;;;;;;6245112;22;20020;-78